createdAt,value
2022-12-13T00:01:23.616Z,7.35
2022-12-13T00:03:56.449Z,7.30
2022-12-13T00:06:22.899Z,6.43
2022-12-13T00:08:49.630Z,6.72
2022-12-13T00:11:16.656Z,6.60
2022-12-13T00:13:43.795Z,6.30
2022-12-13T00:16:12.726Z,5.95
2022-12-13T00:18:39.795Z,6.50
2022-12-13T00:21:08.394Z,6.63
2022-12-13T00:23:35.506Z,6.85
2022-12-13T00:26:15.287Z,7.38
2022-12-13T00:28:42.191Z,7.72
2022-12-13T00:31:51.596Z,7.70
2022-12-13T00:33:56.023Z,7.25
2022-12-13T00:36:22.495Z,8.10
2022-12-13T00:39:00.230Z,7.95
2022-12-13T00:41:30.170Z,8.35
2022-12-13T00:43:57.113Z,7.85
2022-12-13T00:46:23.936Z,7.22
2022-12-13T00:48:52.578Z,7.32
2022-12-13T00:51:20.063Z,7.70
2022-12-13T00:53:47.008Z,6.88
2022-12-13T00:56:16.827Z,7.18
2022-12-13T00:58:48.648Z,7.38
2022-12-13T01:01:21.090Z,4.05
2022-12-13T01:03:47.743Z,6.20
2022-12-13T01:06:16.750Z,6.20
2022-12-13T01:08:44.418Z,5.68
2022-12-13T01:11:10.917Z,6.00
2022-12-13T01:13:38.174Z,5.60
2022-12-13T01:16:06.735Z,5.63
2022-12-13T01:18:33.577Z,5.88
2022-12-13T01:21:34.234Z,5.88
2022-12-13T01:24:05.394Z,5.88
2022-12-13T01:26:32.571Z,5.20
2022-12-13T01:28:59.355Z,5.05
2022-12-13T01:31:26.474Z,4.85
2022-12-13T01:33:52.915Z,4.88
2022-12-13T01:36:27.128Z,4.70
2022-12-13T01:38:58.288Z,5.13
2022-12-13T01:41:27.335Z,4.40
2022-12-13T01:44:05.456Z,4.15
2022-12-13T01:46:34.359Z,4.13
2022-12-13T01:49:20.387Z,4.30
2022-12-13T01:51:59.744Z,3.67
2022-12-13T01:54:33.749Z,4.13
2022-12-13T01:57:06.378Z,3.55
2022-12-13T01:59:36.799Z,3.40
2022-12-13T02:02:04.891Z,3.40
2022-12-13T02:04:44.097Z,3.00
2022-12-13T02:07:14.165Z,3.03
2022-12-13T02:09:56.366Z,2.60
2022-12-13T02:12:29.349Z,2.63
2022-12-13T02:15:00.547Z,2.30
2022-12-13T02:17:55.213Z,2.38
2022-12-13T02:20:30.976Z,1.98
2022-12-13T02:23:18.775Z,2.03
2022-12-13T02:26:02.692Z,2.05
2022-12-13T02:28:44.206Z,1.60
2022-12-13T02:31:15.613Z,1.67
2022-12-13T02:34:12.526Z,1.92
2022-12-13T02:36:57.263Z,2.33
2022-12-13T02:39:31.137Z,1.80
2022-12-13T02:42:02.818Z,1.73
2022-12-13T02:44:32.392Z,2.05
2022-12-13T02:47:05.432Z,1.80
2022-12-13T02:49:46.898Z,2.10
2022-12-13T02:52:22.507Z,2.30
2022-12-13T02:54:49.267Z,2.03
2022-12-13T02:57:29.986Z,2.10
2022-12-13T02:59:59.196Z,2.00
2022-12-13T03:02:42.351Z,1.90
2022-12-13T03:05:45.905Z,1.67
2022-12-13T03:08:15.052Z,1.90
2022-12-13T03:10:49.815Z,2.00
2022-12-13T03:13:37.853Z,1.90
2022-12-13T03:16:25.477Z,1.70
2022-12-13T03:18:55.086Z,1.80
2022-12-13T03:21:22.029Z,1.63
2022-12-13T03:23:48.589Z,1.80
2022-12-13T03:26:20.303Z,1.52
2022-12-13T03:28:57.094Z,1.88
2022-12-13T03:31:23.559Z,1.48
2022-12-13T03:33:50.059Z,2.05
2022-12-13T03:36:18.865Z,1.70
2022-12-13T03:38:47.802Z,2.53
2022-12-13T03:41:17.582Z,3.47
2022-12-13T03:43:44.520Z,3.42
2022-12-13T03:46:11.211Z,3.05
2022-12-13T03:48:38.216Z,3.20
2022-12-13T03:51:05.250Z,3.30
2022-12-13T03:53:34.174Z,3.78
2022-12-13T03:56:03.559Z,3.88
2022-12-13T03:58:35.953Z,4.45
2022-12-13T04:01:09.191Z,3.33
2022-12-13T04:03:37.171Z,3.08
2022-12-13T04:06:04.205Z,2.70
2022-12-13T04:08:30.673Z,2.50
2022-12-13T04:10:57.135Z,2.80
2022-12-13T04:13:32.493Z,2.45
2022-12-13T04:18:25.324Z,2.90
2022-12-13T04:20:51.752Z,2.35
2022-12-13T04:23:34.561Z,2.60
2022-12-13T04:26:01.840Z,2.20
2022-12-13T04:28:28.279Z,2.10
2022-12-13T04:30:54.694Z,2.22
2022-12-13T04:33:22.492Z,2.15
2022-12-13T04:35:49.715Z,1.92
2022-12-13T04:38:16.671Z,2.25
2022-12-13T04:40:43.087Z,2.65
2022-12-13T04:43:09.678Z,2.60
2022-12-13T04:45:36.157Z,3.35
2022-12-13T04:48:02.684Z,3.20
2022-12-13T04:50:29.120Z,3.90
2022-12-13T04:52:55.630Z,3.47
2022-12-13T04:55:22.106Z,3.25
2022-12-13T04:57:48.538Z,3.38
2022-12-13T05:00:15.450Z,3.05
2022-12-13T05:02:42.335Z,3.53
2022-12-13T05:05:12.326Z,3.58
2022-12-13T05:07:41.903Z,3.70
2022-12-13T05:10:11.869Z,3.80
2022-12-13T05:12:49.395Z,3.75
2022-12-13T05:15:37.701Z,4.05
2022-12-13T05:18:09.746Z,3.40
2022-12-13T05:20:38.921Z,4.07
2022-12-13T05:23:05.426Z,3.67
2022-12-13T05:25:33.271Z,3.35
2022-12-13T05:28:08.839Z,3.25
2022-12-13T05:30:38.671Z,3.88
2022-12-13T05:33:10.840Z,4.30
2022-12-13T05:35:37.437Z,3.65
2022-12-13T05:38:20.222Z,3.80
2022-12-13T05:41:15.048Z,4.50
2022-12-13T05:43:43.263Z,3.47
2022-12-13T05:46:42.159Z,3.78
2022-12-13T05:49:08.566Z,3.33
2022-12-13T05:51:47.329Z,3.90
2022-12-13T05:54:14.931Z,3.20
2022-12-13T05:56:41.360Z,3.20
2022-12-13T05:59:07.792Z,3.17
2022-12-13T06:01:35.393Z,3.95
2022-12-13T06:04:01.849Z,3.97
2022-12-13T06:06:28.409Z,3.90
2022-12-13T06:08:55.006Z,3.67
2022-12-13T06:11:32.356Z,3.83
2022-12-13T06:14:00.669Z,3.67
2022-12-13T06:16:27.811Z,4.10
2022-12-13T06:19:03.849Z,3.38
2022-12-13T06:21:41.496Z,4.90
2022-12-13T06:24:10.257Z,4.72
2022-12-13T06:26:36.666Z,4.93
2022-12-13T06:29:03.264Z,5.55
2022-12-13T06:31:29.732Z,4.78
2022-12-13T06:33:56.139Z,5.25
2022-12-13T06:36:22.531Z,4.47
2022-12-13T06:38:48.941Z,5.60
2022-12-13T06:41:17.099Z,4.07
2022-12-13T06:43:45.272Z,5.05
2022-12-13T06:46:12.794Z,4.65
2022-12-13T06:48:40.638Z,5.20
2022-12-13T06:51:08.477Z,4.97
2022-12-13T06:53:37.421Z,5.85
2022-12-13T06:56:06.847Z,6.07
2022-12-13T06:58:34.774Z,5.60
2022-12-13T07:01:03.925Z,5.28
2022-12-13T07:03:31.914Z,5.95
2022-12-13T07:06:06.408Z,9.20
2022-12-13T07:08:32.891Z,8.63
2022-12-13T07:11:02.798Z,9.57
2022-12-13T07:13:31.033Z,9.45
2022-12-13T07:16:00.823Z,8.70
2022-12-13T07:18:27.851Z,11.98
2022-12-13T07:20:54.317Z,8.55
2022-12-13T07:23:24.677Z,6.05
2022-12-13T07:25:53.328Z,5.78
2022-12-13T07:28:20.575Z,5.00
2022-12-13T07:30:47.893Z,4.43
2022-12-13T07:33:22.068Z,4.75
2022-12-13T07:35:49.033Z,3.17
2022-12-13T07:38:22.056Z,5.53
2022-12-13T07:40:48.510Z,12.55
2022-12-13T07:43:17.265Z,13.23
2022-12-13T07:45:44.041Z,12.00
2022-12-13T07:48:10.449Z,12.07
2022-12-13T07:50:37.877Z,9.30
2022-12-13T07:53:07.316Z,9.07
2022-12-13T07:55:34.404Z,8.32
2022-12-13T07:58:12.629Z,9.75
2022-12-13T08:00:45.889Z,9.25
2022-12-13T08:03:24.368Z,8.60
2022-12-13T08:06:10.533Z,8.30
2022-12-13T08:08:37.795Z,10.35
2022-12-13T08:11:09.977Z,14.63
2022-12-13T08:13:36.972Z,12.82
2022-12-13T08:16:25.947Z,21.20
2022-12-13T08:18:53.796Z,26.77
2022-12-13T08:24:20.074Z,21.55
2022-12-13T08:26:46.479Z,13.60
2022-12-13T08:29:13.292Z,13.93
2022-12-13T08:31:50.202Z,9.30
2022-12-13T08:34:16.688Z,7.50
2022-12-13T08:36:43.155Z,6.50
2022-12-13T08:39:09.579Z,6.47
2022-12-13T08:41:39.336Z,6.80
2022-12-13T08:44:06.324Z,6.80
2022-12-13T08:46:32.891Z,7.32
2022-12-13T08:49:00.546Z,6.72
2022-12-13T08:51:30.843Z,7.75
2022-12-13T08:54:10.783Z,8.02
2022-12-13T08:56:38.344Z,6.88
2022-12-13T08:59:05.001Z,7.43
2022-12-13T09:01:31.510Z,6.63
2022-12-13T09:03:58.036Z,6.35
2022-12-13T09:06:24.599Z,5.43
2022-12-13T09:08:53.130Z,8.90
2022-12-13T09:11:20.804Z,6.55
2022-12-13T09:13:51.795Z,4.88
2022-12-13T09:16:24.229Z,5.43
2022-12-13T09:18:55.102Z,5.53
2022-12-13T09:21:31.359Z,7.18
2022-12-13T09:24:01.876Z,6.20
2022-12-13T09:26:29.145Z,6.13
2022-12-13T09:29:11.037Z,5.90
2022-12-13T09:31:40.339Z,5.50
2022-12-13T09:34:07.217Z,5.45
2022-12-13T09:36:33.779Z,5.18
2022-12-13T09:39:00.191Z,5.05
2022-12-13T09:41:40.955Z,4.93
2022-12-13T09:44:32.275Z,4.72
2022-12-13T09:47:00.844Z,4.70
2022-12-13T09:49:35.889Z,4.75
2022-12-13T09:52:11.041Z,4.80
2022-12-13T09:54:47.674Z,5.18
2022-12-13T09:57:32.021Z,4.90
2022-12-13T10:00:02.469Z,4.72
2022-12-13T10:02:32.001Z,4.65
2022-12-13T10:05:25.390Z,4.28
2022-12-13T10:08:17.648Z,4.20
2022-12-13T10:10:44.346Z,3.90
2022-12-13T10:13:16.531Z,4.68
2022-12-13T10:15:47.638Z,3.92
2022-12-13T10:18:24.787Z,4.05
2022-12-13T10:20:53.027Z,4.15
2022-12-13T10:23:59.284Z,4.85
2022-12-13T10:26:23.951Z,5.30
2022-12-13T10:28:52.835Z,5.22
2022-12-13T10:31:20.731Z,4.85
2022-12-13T10:33:56.902Z,5.97
2022-12-13T10:36:38.374Z,4.53
2022-12-13T10:39:04.894Z,4.50
2022-12-13T10:41:38.414Z,4.85
2022-12-13T10:44:25.307Z,5.07
2022-12-13T10:47:10.100Z,4.85
2022-12-13T10:49:47.721Z,4.50
2022-12-13T10:52:33.667Z,5.20
2022-12-13T10:55:22.796Z,3.80
2022-12-13T10:57:56.764Z,4.20
2022-12-13T11:00:37.086Z,3.70
2022-12-13T11:03:04.225Z,4.35
2022-12-13T11:05:33.955Z,4.38
2022-12-13T11:08:14.324Z,4.20
2022-12-13T11:10:41.079Z,5.20
2022-12-13T11:13:08.170Z,4.25
2022-12-13T11:15:37.809Z,4.35
2022-12-13T11:18:23.172Z,7.30
2022-12-13T11:21:04.230Z,5.20
2022-12-13T11:23:38.101Z,4.45
2022-12-13T11:26:16.766Z,6.90
2022-12-13T11:29:18.885Z,4.63
2022-12-13T11:32:00.856Z,4.05
2022-12-13T11:34:51.526Z,4.60
2022-12-13T11:37:33.340Z,5.25
2022-12-13T11:40:31.895Z,3.83
2022-12-13T11:43:21.098Z,4.28
2022-12-13T11:45:55.869Z,12.15
2022-12-13T11:48:39.307Z,9.02
2022-12-13T11:51:07.878Z,4.47
2022-12-13T11:53:49.659Z,5.20
2022-12-13T11:56:23.883Z,3.78
2022-12-13T11:59:11.988Z,4.75
2022-12-13T12:01:53.245Z,4.20
2022-12-13T12:04:44.221Z,4.13
2022-12-13T12:07:31.985Z,4.70
2022-12-13T12:10:21.108Z,3.58
2022-12-13T12:12:55.552Z,4.10
2022-12-13T12:15:27.047Z,3.80
2022-12-13T12:17:55.539Z,4.70
2022-12-13T12:20:41.957Z,4.40
2022-12-13T12:25:57.689Z,3.88
2022-12-13T12:28:34.406Z,4.70
2022-12-13T12:31:23.828Z,4.20
2022-12-13T12:34:13.245Z,4.57
2022-12-13T12:36:51.186Z,4.72
2022-12-13T12:39:59.460Z,4.18
2022-12-13T12:43:14.271Z,4.50
2022-12-13T12:45:56.413Z,5.38
2022-12-13T12:51:39.605Z,4.90
2022-12-13T12:54:35.443Z,5.15
2022-12-13T12:57:29.092Z,5.05
2022-12-13T13:00:17.660Z,5.07
2022-12-13T13:03:05.263Z,4.82
2022-12-13T13:05:48.095Z,4.95
2022-12-13T13:08:28.860Z,5.03
2022-12-13T13:11:01.816Z,6.03
2022-12-13T13:14:01.739Z,5.55
2022-12-13T13:16:33.350Z,6.35
2022-12-13T13:19:34.748Z,7.35
2022-12-13T13:22:53.752Z,6.25
2022-12-13T13:25:35.189Z,5.93
2022-12-13T13:28:17.876Z,5.60
2022-12-13T13:31:10.390Z,7.07
2022-12-13T13:33:47.344Z,5.80
2022-12-13T13:36:38.785Z,6.47
2022-12-13T13:39:19.249Z,5.28
2022-12-13T13:41:56.862Z,5.47
2022-12-13T13:45:01.935Z,6.18
2022-12-13T13:47:33.979Z,6.22
2022-12-13T13:50:12.411Z,6.95
2022-12-13T13:53:21.458Z,6.10
2022-12-13T13:56:19.614Z,8.07
2022-12-13T14:02:58.423Z,6.80
2022-12-13T14:06:14.880Z,5.85
2022-12-13T14:09:20.556Z,7.18
2022-12-13T14:12:02.572Z,7.22
2022-12-13T14:15:01.464Z,7.93
2022-12-13T14:17:49.952Z,7.15
2022-12-13T14:20:42.585Z,7.63
2022-12-13T14:24:07.366Z,6.57
2022-12-13T14:27:31.556Z,6.80
2022-12-13T14:29:59.084Z,6.18
2022-12-13T14:32:32.748Z,8.35
2022-12-13T14:35:25.827Z,7.30
2022-12-13T14:37:56.849Z,7.82
2022-12-13T14:40:56.393Z,7.68
2022-12-13T14:43:26.874Z,8.35
2022-12-13T14:46:19.155Z,7.28
2022-12-13T14:48:49.444Z,7.63
2022-12-13T14:51:30.434Z,9.23
2022-12-13T14:53:56.966Z,9.48
2022-12-13T14:56:54.828Z,9.25
2022-12-13T14:59:25.775Z,8.38
2022-12-13T15:02:00.326Z,8.32
2022-12-13T15:04:29.332Z,8.65
2022-12-13T15:07:01.691Z,8.32
2022-12-13T15:09:42.318Z,8.27
2022-12-13T15:12:24.430Z,8.00
2022-12-13T15:15:14.499Z,8.93
2022-12-13T15:17:45.035Z,8.48
2022-12-13T15:20:23.983Z,8.43
2022-12-13T15:23:10.775Z,8.48
2022-12-13T15:25:38.005Z,8.50
2022-12-13T15:28:18.253Z,8.98
2022-12-13T15:31:06.285Z,9.25
2022-12-13T15:34:28.337Z,10.43
2022-12-13T15:37:28.323Z,10.98
2022-12-13T15:39:59.851Z,9.50
2022-12-13T15:42:47.017Z,9.07
2022-12-13T15:45:31.770Z,9.55
2022-12-13T15:48:06.178Z,9.68
2022-12-13T15:50:41.005Z,9.82
2022-12-13T15:53:28.941Z,9.82
2022-12-13T15:55:55.886Z,8.88
2022-12-13T15:58:40.377Z,9.80
2022-12-13T16:01:30.576Z,9.77
2022-12-13T16:03:57.546Z,9.30
2022-12-13T16:06:26.408Z,10.18
2022-12-13T16:08:59.866Z,10.02
2022-12-13T16:11:34.195Z,11.38
2022-12-13T16:14:49.477Z,9.20
2022-12-13T16:17:24.969Z,11.32
2022-12-13T16:19:55.920Z,7.57
2022-12-13T16:22:24.028Z,9.57
2022-12-13T16:24:52.876Z,9.98
2022-12-13T16:27:19.689Z,9.77
2022-12-13T16:30:15.939Z,9.43
2022-12-13T16:33:10.806Z,9.95
2022-12-13T16:38:17.801Z,10.98
2022-12-13T16:41:09.282Z,11.80
2022-12-13T16:44:10.626Z,11.07
2022-12-13T16:47:18.702Z,10.02
2022-12-13T16:49:34.707Z,9.45
2022-12-13T16:52:05.007Z,9.15
2022-12-13T16:54:39.735Z,9.27
2022-12-13T16:57:21.306Z,9.52
2022-12-13T16:59:55.013Z,8.98
2022-12-13T17:02:25.645Z,9.15
2022-12-13T17:04:54.132Z,8.82
2022-12-13T17:07:20.555Z,8.90
2022-12-13T17:10:04.896Z,8.88
2022-12-13T17:12:50.610Z,8.35
2022-12-13T17:15:17.186Z,8.98
2022-12-13T17:17:45.178Z,10.27
2022-12-13T17:20:47.036Z,9.93
2022-12-13T17:23:36.014Z,9.10
2022-12-13T17:26:06.914Z,8.85
2022-12-13T17:28:34.262Z,10.45
2022-12-13T17:31:09.744Z,8.90
2022-12-13T17:33:50.518Z,8.38
2022-12-13T17:36:38.748Z,7.78
2022-12-13T17:39:12.059Z,7.72
2022-12-13T17:41:54.787Z,9.23
2022-12-13T17:44:23.376Z,9.35
2022-12-13T17:46:55.092Z,8.90
2022-12-13T17:49:22.261Z,9.82
2022-12-13T17:51:51.411Z,8.77
2022-12-13T17:54:18.664Z,8.40
2022-12-13T17:56:45.117Z,9.25
2022-12-13T17:59:13.301Z,10.18
2022-12-13T18:01:39.776Z,8.90
2022-12-13T18:04:06.245Z,8.32
2022-12-13T18:06:39.519Z,8.63
2022-12-13T18:09:08.131Z,8.60
2022-12-13T18:11:43.135Z,8.35
2022-12-13T18:14:41.743Z,9.30
2022-12-13T18:17:08.203Z,8.55
2022-12-13T18:19:34.642Z,8.82
2022-12-13T18:22:10.403Z,8.20
2022-12-13T18:24:36.992Z,8.68
2022-12-13T18:27:03.648Z,8.30
2022-12-13T18:29:36.405Z,7.75
2022-12-13T18:32:03.643Z,8.25
2022-12-13T18:35:04.468Z,8.55
2022-12-13T18:37:30.875Z,9.63
2022-12-13T18:39:57.270Z,11.20
2022-12-13T18:42:23.678Z,9.13
2022-12-13T18:44:54.189Z,8.27
2022-12-13T18:47:21.363Z,8.10
2022-12-13T18:49:55.096Z,8.40
2022-12-13T18:52:37.300Z,8.57
2022-12-13T18:55:04.073Z,8.93
2022-12-13T18:57:37.479Z,9.18
2022-12-13T19:00:05.174Z,8.65
2022-12-13T19:02:45.099Z,8.20
2022-12-13T19:05:14.904Z,8.85
2022-12-13T19:07:48.468Z,8.40
2022-12-13T19:10:16.089Z,9.60
2022-12-13T19:13:14.641Z,9.27
2022-12-13T19:15:44.927Z,10.15
2022-12-13T19:18:14.930Z,9.35
2022-12-13T19:20:46.842Z,9.57
2022-12-13T19:23:13.311Z,9.45
2022-12-13T19:25:52.809Z,9.30
2022-12-13T19:28:44.497Z,9.63
2022-12-13T19:31:15.611Z,8.70
2022-12-13T19:33:42.740Z,9.45
2022-12-13T19:36:11.341Z,8.90
2022-12-13T19:38:38.518Z,8.30
2022-12-13T19:41:17.212Z,8.35
2022-12-13T19:43:50.621Z,8.85
2022-12-13T19:46:18.921Z,6.65
2022-12-13T19:49:01.558Z,9.05
2022-12-13T19:51:39.803Z,8.27
2022-12-13T19:54:13.799Z,8.60
2022-12-13T19:56:47.442Z,8.65
2022-12-13T19:59:20.117Z,9.13
2022-12-13T20:01:57.218Z,8.82
2022-12-13T20:04:25.934Z,8.60
2022-12-13T20:07:18.415Z,9.27
2022-12-13T20:09:44.825Z,8.82
2022-12-13T20:12:11.284Z,9.38
2022-12-13T20:14:37.885Z,9.10
2022-12-13T20:17:16.733Z,9.38
2022-12-13T20:19:43.270Z,8.63
2022-12-13T20:22:26.682Z,9.30
2022-12-13T20:24:54.400Z,8.90
2022-12-13T20:27:26.069Z,10.68
2022-12-13T20:29:53.465Z,15.45
2022-12-13T20:32:21.002Z,12.70
2022-12-13T20:34:54.531Z,11.40
2022-12-13T20:37:21.789Z,10.35
2022-12-13T20:39:48.295Z,11.52
2022-12-13T20:42:20.862Z,11.20
2022-12-13T20:45:04.008Z,12.35
2022-12-13T20:47:33.907Z,11.48
2022-12-13T20:50:07.792Z,12.85
2022-12-13T20:52:34.189Z,31.17
2022-12-13T20:55:00.731Z,34.80
2022-12-13T20:57:34.205Z,33.58
2022-12-13T21:00:00.759Z,13.32
2022-12-13T21:02:37.768Z,12.38
2022-12-13T21:05:05.611Z,12.68
2022-12-13T21:08:06.850Z,12.73
2022-12-13T21:10:33.252Z,13.35
2022-12-13T21:12:59.659Z,12.32
2022-12-13T21:15:26.063Z,12.60
2022-12-13T21:17:52.458Z,12.25
2022-12-13T21:20:23.147Z,12.32
2022-12-13T21:22:49.575Z,11.93
2022-12-13T21:25:16.013Z,12.57
2022-12-13T21:27:51.570Z,13.20
2022-12-13T21:31:11.648Z,13.23
2022-12-13T21:33:39.385Z,12.23
2022-12-13T21:36:16.419Z,12.52
2022-12-13T21:38:44.028Z,12.25
2022-12-13T21:41:11.395Z,12.55
2022-12-13T21:43:58.707Z,12.52
2022-12-13T21:46:47.847Z,12.00
2022-12-13T21:49:16.165Z,12.45
2022-12-13T21:51:47.572Z,12.70
2022-12-13T21:54:14.816Z,11.88
2022-12-13T21:56:59.659Z,11.95
2022-12-13T21:59:28.605Z,12.15
2022-12-13T22:02:11.739Z,12.43
2022-12-13T22:04:53.103Z,11.20
2022-12-13T22:07:22.529Z,11.85
2022-12-13T22:09:52.458Z,11.80
2022-12-13T22:12:26.365Z,11.45
2022-12-13T22:14:53.602Z,11.35
2022-12-13T22:17:24.939Z,11.55
2022-12-13T22:20:02.082Z,11.88
2022-12-13T22:22:28.725Z,11.90
2022-12-13T22:24:55.233Z,12.98
2022-12-13T22:27:25.568Z,12.50
2022-12-13T22:29:59.686Z,12.20
2022-12-13T22:32:28.612Z,13.13
2022-12-13T22:34:55.166Z,13.45
2022-12-13T22:37:22.164Z,12.80
2022-12-13T22:39:48.567Z,13.02
2022-12-13T22:42:20.329Z,13.68
2022-12-13T22:44:46.883Z,12.50
2022-12-13T22:47:13.309Z,12.48
2022-12-13T22:49:40.161Z,12.30
2022-12-13T22:52:06.935Z,13.27
2022-12-13T22:54:33.332Z,13.25
2022-12-13T22:56:59.731Z,13.38
2022-12-13T22:59:26.153Z,13.07
2022-12-13T23:02:05.054Z,13.18
2022-12-13T23:04:31.988Z,12.50
2022-12-13T23:06:58.744Z,12.18
2022-12-13T23:09:25.137Z,12.70
2022-12-13T23:12:10.159Z,12.57
2022-12-13T23:14:36.592Z,12.75
2022-12-13T23:17:04.374Z,13.40
2022-12-13T23:19:49.803Z,13.85
2022-12-13T23:22:21.166Z,13.43
2022-12-13T23:24:47.652Z,13.10
2022-12-13T23:27:14.256Z,13.55
2022-12-13T23:29:40.751Z,12.57
2022-12-13T23:32:07.212Z,13.73
2022-12-13T23:34:33.733Z,12.88
2022-12-13T23:37:00.154Z,13.38
2022-12-13T23:39:26.710Z,13.02
2022-12-13T23:41:53.133Z,14.18
2022-12-13T23:44:27.810Z,13.43
2022-12-13T23:46:55.268Z,12.57
2022-12-13T23:49:21.704Z,13.15
2022-12-13T23:51:48.142Z,13.63
2022-12-13T23:54:17.645Z,13.70
2022-12-13T23:56:44.086Z,13.32
2022-12-13T23:59:11.044Z,12.85
